Skip Navigation Links Skip Navigation Links

Current Weather

Boryspil, Kiev, Ukraine

For information only: do not use for flight planning or navigation.
Latest weather
Observation time Monday, July 23, 2018 3:30 PM EEST
Local time Monday, July 23, 2018 4:10 PM EEST
Flight conditions Marginal Visual Meteorological Conditions
Winds
Wind direction variable
Winds variable from 40° to 110°
Wind speed 12 mph
Wind gusting to 36 mph
Visibility 6.2 mi.
Present weather light thunderstorm with rain, squall
Sky condition
Ceiling 2,000 ft. broken clouds with cumulonimbus
Cloud layer few clouds 1,900 ft.
Cloud layer broken clouds with cumulonimbus 2,000 ft.
Cloud layer scattered clouds with cumulonimbus 2,600 ft.
Temperature 75°F
Dewpoint 68°F
Altimeter 29.62 in.Hg
Derived measurements
Relative humidity 78%
Density altitude 2256 ft.
METAR UKKK 231230Z 07003MPS 040V110 9999 FEW019 SCT026CB 24/20 Q1003 R08/290350 TEMPO VRB10G16MPS 2100 -TSRA SQ BKN020CB

Settings

Location code

InnerDrive.Weather 4.0.6770.0 Release CLR 4.0.30319.42000
Copyright ©2018 Inner Drive Technology. All rights reserved. Portions Copyright ©1986-2018 David Braverman.

Find weather

Site navigation


Skip Navigation Links

Place info

Page info

PayPal - The safer, easier way to pay online!

Return home.

Copyright ©2018 Inner Drive Technology. Purveyors of fine, hand-crafted computer software. Page printed 2018-07-23T13:10:40 UTC.